createdAt,value
2018-04-23T00:02:07.243Z,64.45
2018-04-23T00:04:34.738Z,64.36
2018-04-23T00:07:02.248Z,64.33
2018-04-23T00:09:29.749Z,64.58
2018-04-23T00:11:57.267Z,64.99
2018-04-23T00:14:24.793Z,65.32
2018-04-23T00:16:52.333Z,66.08
2018-04-23T00:19:19.853Z,66.61
2018-04-23T00:21:47.335Z,66.92
2018-04-23T00:24:14.826Z,67.21
2018-04-23T00:26:42.339Z,67.35
2018-04-23T00:29:09.829Z,69.06
2018-04-23T00:31:37.345Z,68.66
2018-04-23T00:34:04.850Z,67.86
2018-04-23T00:36:32.351Z,68.03
2018-04-23T00:38:59.873Z,68.01
2018-04-23T00:41:27.370Z,68.15
2018-04-23T00:43:54.902Z,68.34
2018-04-23T00:46:22.401Z,68.87
2018-04-23T00:48:49.898Z,68.98
2018-04-23T00:51:17.422Z,69.21
2018-04-23T00:53:44.921Z,69.41
2018-04-23T00:56:12.452Z,69.69
2018-04-23T00:58:39.976Z,70.21
2018-04-23T01:01:07.469Z,70.20
2018-04-23T01:03:35.040Z,70.86
2018-04-23T01:06:02.528Z,70.85
2018-04-23T01:08:30.037Z,70.73
2018-04-23T01:10:57.533Z,71.02
2018-04-23T01:13:25.051Z,70.99
2018-04-23T01:15:52.555Z,71.37
2018-04-23T01:18:20.078Z,70.52
2018-04-23T01:20:47.578Z,70.45
2018-04-23T01:23:15.110Z,70.48
2018-04-23T01:25:42.609Z,70.14
2018-04-23T01:28:10.101Z,70.50
2018-04-23T01:30:37.634Z,69.79
2018-04-23T01:33:05.129Z,69.53
2018-04-23T01:35:32.641Z,69.87
2018-04-23T01:38:00.150Z,70.08
2018-04-23T01:40:27.669Z,69.69
2018-04-23T01:42:55.171Z,69.52
2018-04-23T01:45:22.691Z,69.45
2018-04-23T01:47:50.285Z,69.40
2018-04-23T01:50:17.805Z,69.48
2018-04-23T01:52:45.294Z,70.11
2018-04-23T01:55:12.821Z,70.27
2018-04-23T01:57:40.325Z,69.62
2018-04-23T02:00:07.846Z,69.77
2018-04-23T02:02:35.405Z,69.33
2018-04-23T02:05:02.933Z,69.28
2018-04-23T02:07:30.435Z,69.03
2018-04-23T02:09:57.957Z,68.98
2018-04-23T02:12:25.452Z,69.23
2018-04-23T02:14:53.318Z,69.03
2018-04-23T02:17:20.818Z,69.40
2018-04-23T02:19:48.317Z,68.95
2018-04-23T02:22:15.846Z,69.27
2018-04-23T02:24:43.341Z,68.88
2018-04-23T02:27:10.862Z,68.77
2018-04-23T02:29:38.348Z,68.71
2018-04-23T02:32:05.865Z,69.02
2018-04-23T02:34:33.358Z,69.25
2018-04-23T02:37:00.882Z,69.14
2018-04-23T02:39:28.393Z,68.27
2018-04-23T02:41:55.914Z,68.35
2018-04-23T02:44:23.411Z,68.25
2018-04-23T02:46:50.926Z,68.59
2018-04-23T02:49:18.440Z,67.92
2018-04-23T02:51:45.950Z,68.25
2018-04-23T02:54:13.441Z,67.74
2018-04-23T02:56:40.966Z,67.69
2018-04-23T02:59:08.469Z,67.93
2018-04-23T03:01:35.991Z,67.80
2018-04-23T03:04:03.493Z,66.90
2018-04-23T03:06:31.013Z,66.76
2018-04-23T03:08:58.507Z,66.70
2018-04-23T03:11:26.042Z,66.34
2018-04-23T03:13:53.538Z,66.43
2018-04-23T03:16:21.036Z,66.68
2018-04-23T03:18:48.558Z,66.09
2018-04-23T03:21:16.057Z,66.01
2018-04-23T03:23:43.569Z,66.39
2018-04-23T03:26:11.070Z,67.00
2018-04-23T03:28:38.598Z,66.19
2018-04-23T03:31:06.105Z,66.40
2018-04-23T03:33:33.621Z,65.61
2018-04-23T03:36:01.121Z,65.64
2018-04-23T03:38:28.641Z,65.62
2018-04-23T03:40:56.138Z,65.48
2018-04-23T03:43:23.658Z,66.34
2018-04-23T03:45:51.945Z,66.12
2018-04-23T03:48:19.461Z,66.32
2018-04-23T03:50:46.960Z,66.04
2018-04-23T03:53:14.476Z,65.54
2018-04-23T03:55:41.969Z,66.04
2018-04-23T03:58:09.486Z,65.95
2018-04-23T04:00:36.985Z,66.20
2018-04-23T04:03:04.499Z,66.07
2018-04-23T04:05:31.997Z,66.77
2018-04-23T04:07:59.497Z,66.98
2018-04-23T04:10:27.009Z,66.51
2018-04-23T04:13:06.358Z,66.95
2018-04-23T04:15:45.794Z,66.60
2018-04-23T04:18:33.862Z,66.85
2018-04-23T04:21:01.372Z,66.74
2018-04-23T04:23:28.873Z,66.60
2018-04-23T04:25:57.254Z,66.82
2018-04-23T04:28:24.753Z,66.81
2018-04-23T04:30:52.276Z,66.79
2018-04-23T04:33:19.769Z,67.10
2018-04-23T04:35:47.298Z,66.58
2018-04-23T04:38:14.837Z,66.50
2018-04-23T04:40:42.325Z,66.45
2018-04-23T04:43:09.818Z,66.18
2018-04-23T04:45:37.329Z,65.86
2018-04-23T04:48:04.829Z,65.86
2018-04-23T04:50:32.349Z,65.60
2018-04-23T04:52:59.855Z,65.16
2018-04-23T04:55:27.395Z,65.59
2018-04-23T04:57:54.939Z,65.98
2018-04-23T05:00:22.458Z,65.27
2018-04-23T05:02:49.955Z,66.36
2018-04-23T05:05:17.483Z,66.41
2018-04-23T05:07:45.022Z,65.87
2018-04-23T05:10:12.550Z,66.78
2018-04-23T05:12:40.049Z,67.81
2018-04-23T05:15:07.554Z,66.36
2018-04-23T05:17:35.078Z,65.76
2018-04-23T05:20:02.611Z,64.82
2018-04-23T05:22:30.133Z,64.73
2018-04-23T05:24:57.639Z,65.92
2018-04-23T05:27:25.163Z,64.73
2018-04-23T05:29:52.692Z,65.06
2018-04-23T05:32:20.201Z,63.42
2018-04-23T05:34:47.701Z,64.95
2018-04-23T05:37:15.226Z,64.02
2018-04-23T05:39:42.731Z,63.02
2018-04-23T05:42:10.244Z,62.65
2018-04-23T05:44:37.753Z,63.54
2018-04-23T05:47:05.279Z,62.09
2018-04-23T05:49:32.779Z,60.67
2018-04-23T05:52:00.293Z,60.22
2018-04-23T05:54:27.791Z,58.32
2018-04-23T05:56:55.310Z,55.00
2018-04-23T05:59:22.808Z,53.69
2018-04-23T06:01:50.321Z,52.86
2018-04-23T06:04:17.817Z,52.94
2018-04-23T06:06:45.316Z,51.85
2018-04-23T06:09:12.867Z,49.85
2018-04-23T06:11:40.357Z,48.08
2018-04-23T06:14:07.873Z,47.54
2018-04-23T06:16:35.410Z,45.32
2018-04-23T06:19:02.916Z,43.59
2018-04-23T06:21:30.457Z,40.89
2018-04-23T06:23:57.972Z,37.16
2018-04-23T06:26:25.466Z,35.84
2018-04-23T06:28:52.988Z,35.32
2018-04-23T06:31:20.486Z,34.29
2018-04-23T06:33:48.007Z,33.73
2018-04-23T06:36:15.494Z,33.75
2018-04-23T06:38:43.002Z,34.31
2018-04-23T06:41:10.493Z,33.93
2018-04-23T06:43:38.005Z,36.35
2018-04-23T06:46:05.500Z,37.39
2018-04-23T06:48:33.949Z,35.20
2018-04-23T06:51:01.440Z,33.74
2018-04-23T06:53:28.961Z,33.14
2018-04-23T06:55:56.500Z,33.45
2018-04-23T06:58:24.077Z,34.44
2018-04-23T07:00:51.565Z,33.35
2018-04-23T07:03:19.061Z,31.19
2018-04-23T07:05:46.618Z,29.80
2018-04-23T07:08:14.096Z,30.96
2018-04-23T07:10:41.606Z,29.86
2018-04-23T07:13:09.145Z,31.32
2018-04-23T07:15:36.655Z,32.59
2018-04-23T07:18:04.142Z,33.91
2018-04-23T07:20:31.663Z,33.86
2018-04-23T07:22:59.157Z,30.44
2018-04-23T07:25:26.754Z,28.28
2018-04-23T07:27:54.246Z,27.25
2018-04-23T07:30:21.758Z,25.40
2018-04-23T07:32:49.253Z,25.99
2018-04-23T07:35:16.925Z,27.08
2018-04-23T07:37:44.417Z,29.16
2018-04-23T07:40:11.936Z,28.17
2018-04-23T07:42:39.439Z,27.33
2018-04-23T07:45:06.980Z,28.03
2018-04-23T07:47:34.494Z,27.51
2018-04-23T07:50:02.028Z,27.83
2018-04-23T07:52:29.530Z,27.19
2018-04-23T07:54:57.045Z,26.50
2018-04-23T07:57:24.675Z,26.44
2018-04-23T07:59:52.211Z,27.55
2018-04-23T08:02:19.729Z,28.05
2018-04-23T08:04:47.260Z,27.42
2018-04-23T08:07:14.773Z,27.51
2018-04-23T08:09:42.266Z,28.17
2018-04-23T08:12:09.780Z,27.50
2018-04-23T08:14:37.270Z,26.97
2018-04-23T08:17:04.785Z,28.86
2018-04-23T08:19:32.273Z,30.04
2018-04-23T08:21:59.784Z,30.04
2018-04-23T08:24:27.283Z,29.70
2018-04-23T08:26:54.876Z,29.60
2018-04-23T08:29:22.368Z,29.53
2018-04-23T08:31:50.009Z,28.72
2018-04-23T08:34:17.520Z,28.61
2018-04-23T08:36:45.027Z,30.75
2018-04-23T08:39:12.518Z,31.38
2018-04-23T08:41:40.060Z,31.40
2018-04-23T08:44:07.562Z,32.15
2018-04-23T08:46:35.075Z,32.07
2018-04-23T08:49:02.566Z,33.39
2018-04-23T08:51:30.094Z,33.72
2018-04-23T08:53:57.580Z,34.70
2018-04-23T08:56:25.074Z,35.45
2018-04-23T08:58:52.590Z,36.17
2018-04-23T09:01:20.073Z,36.90
2018-04-23T09:03:47.595Z,38.30
2018-04-23T09:06:15.091Z,38.05
2018-04-23T09:08:42.613Z,39.50
2018-04-23T09:11:10.110Z,39.16
2018-04-23T09:13:37.627Z,37.36
2018-04-23T09:16:05.119Z,36.86
2018-04-23T09:18:32.634Z,37.23
2018-04-23T09:21:00.125Z,36.86
2018-04-23T09:23:27.633Z,36.97
2018-04-23T09:25:55.124Z,36.37
2018-04-23T09:28:23.644Z,35.08
2018-04-23T09:30:51.142Z,33.43
2018-04-23T09:33:18.656Z,34.01
2018-04-23T09:35:46.146Z,31.53
2018-04-23T09:38:13.669Z,29.51
2018-04-23T09:40:41.162Z,28.70
2018-04-23T09:43:08.685Z,29.22
2018-04-23T09:45:36.187Z,29.70
2018-04-23T09:48:03.710Z,30.55
2018-04-23T09:50:31.198Z,30.55
2018-04-23T09:52:58.700Z,30.89
2018-04-23T09:55:26.213Z,31.08
2018-04-23T09:57:53.702Z,30.58
2018-04-23T10:00:35.473Z,30.34
2018-04-23T10:03:08.988Z,29.72
2018-04-23T10:05:36.506Z,28.79
2018-04-23T10:08:04.036Z,28.44
2018-04-23T10:10:31.525Z,29.36
2018-04-23T10:12:59.017Z,28.27
2018-04-23T10:15:26.571Z,27.29
2018-04-23T10:17:54.058Z,27.75
2018-04-23T10:20:21.570Z,25.91
2018-04-23T10:22:49.130Z,26.13
2018-04-23T10:25:16.641Z,24.84
2018-04-23T10:27:44.130Z,23.47
2018-04-23T10:30:11.646Z,24.35
2018-04-23T10:32:39.138Z,25.11
2018-04-23T10:35:06.662Z,23.66
2018-04-23T10:37:34.161Z,21.69
2018-04-23T10:40:01.690Z,24.21
2018-04-23T10:42:29.186Z,26.05
2018-04-23T10:44:56.673Z,28.37
2018-04-23T10:47:24.195Z,28.32
2018-04-23T10:49:51.741Z,28.04
2018-04-23T10:52:19.231Z,28.86
2018-04-23T10:54:46.717Z,29.42
2018-04-23T10:57:14.247Z,29.75
2018-04-23T10:59:41.741Z,28.85
2018-04-23T11:02:09.263Z,27.98
2018-04-23T11:04:36.763Z,25.46
2018-04-23T11:07:04.277Z,26.19
2018-04-23T11:09:31.852Z,26.29
2018-04-23T11:11:59.365Z,26.42
2018-04-23T11:14:26.861Z,26.67
2018-04-23T11:16:54.381Z,25.62
2018-04-23T11:19:21.875Z,25.23
2018-04-23T11:21:49.389Z,25.31
2018-04-23T11:24:16.945Z,28.72
2018-04-23T11:26:44.499Z,29.83
2018-04-23T11:29:12.011Z,30.00
2018-04-23T11:31:39.587Z,30.07
2018-04-23T11:34:07.116Z,29.78
2018-04-23T11:36:34.629Z,30.79
2018-04-23T11:39:02.187Z,30.05
2018-04-23T11:41:29.686Z,28.77
2018-04-23T11:43:57.205Z,28.31
2018-04-23T11:46:24.693Z,28.01
2018-04-23T11:48:52.213Z,27.83
2018-04-23T11:51:19.710Z,28.46
2018-04-23T11:53:47.237Z,28.95
2018-04-23T11:56:14.737Z,30.65
2018-04-23T11:58:42.258Z,31.39
2018-04-23T12:01:09.754Z,31.74
2018-04-23T12:03:37.268Z,32.24
2018-04-23T12:06:04.766Z,33.32
2018-04-23T12:08:32.289Z,33.56
2018-04-23T12:10:59.788Z,34.00
2018-04-23T12:13:27.331Z,34.28
2018-04-23T12:15:54.826Z,34.19
2018-04-23T12:18:22.337Z,35.42
2018-04-23T12:20:49.843Z,36.41
2018-04-23T12:23:17.377Z,38.77
2018-04-23T12:25:44.882Z,39.15
2018-04-23T12:28:12.407Z,39.40
2018-04-23T12:30:39.908Z,38.78
2018-04-23T12:33:08.039Z,39.29
2018-04-23T12:35:35.657Z,38.20
2018-04-23T12:38:03.175Z,37.43
2018-04-23T12:40:30.702Z,36.95
2018-04-23T12:42:58.201Z,35.79
2018-04-23T12:45:25.726Z,35.63
2018-04-23T12:47:53.310Z,35.84
2018-04-23T12:50:20.913Z,35.43
2018-04-23T12:52:48.516Z,35.10
2018-04-23T12:55:16.060Z,37.07
2018-04-23T12:57:43.650Z,37.35
2018-04-23T13:00:11.176Z,36.58
2018-04-23T13:02:38.690Z,38.52
2018-04-23T13:05:06.413Z,37.91
2018-04-23T13:07:33.966Z,37.04
2018-04-23T13:10:01.874Z,37.69
2018-04-23T13:12:29.481Z,36.67
2018-04-23T13:14:56.988Z,37.54
2018-04-23T13:17:24.634Z,35.92
2018-04-23T13:19:52.159Z,35.58
2018-04-23T13:22:19.843Z,37.64
2018-04-23T13:24:47.363Z,36.50
2018-04-23T13:27:14.870Z,36.64
2018-04-23T13:29:42.442Z,36.56
2018-04-23T13:32:09.935Z,35.95
2018-04-23T13:34:37.430Z,35.55
2018-04-23T13:37:04.953Z,36.42
2018-04-23T13:39:32.455Z,36.44
2018-04-23T13:41:59.974Z,36.94
2018-04-23T13:44:27.469Z,36.67
2018-04-23T13:46:54.981Z,35.82
2018-04-23T13:49:22.483Z,36.09
2018-04-23T13:51:49.996Z,36.90
2018-04-23T13:54:17.493Z,38.25
2018-04-23T13:56:45.027Z,37.93
2018-04-23T13:59:12.517Z,38.93
2018-04-23T14:01:40.020Z,38.40
2018-04-23T14:04:07.527Z,38.43
2018-04-23T14:06:35.030Z,40.13
2018-04-23T14:09:02.525Z,40.25
2018-04-23T14:11:30.045Z,41.00
2018-04-23T14:13:57.537Z,41.57
2018-04-23T14:16:25.049Z,41.98
2018-04-23T14:18:52.553Z,42.61
2018-04-23T14:21:20.074Z,43.24
2018-04-23T14:23:47.570Z,44.15
2018-04-23T14:26:15.091Z,45.25
2018-04-23T14:28:43.567Z,45.39
2018-04-23T14:31:11.067Z,45.74
2018-04-23T14:33:38.591Z,46.62
2018-04-23T14:36:06.094Z,47.16
2018-04-23T14:38:33.630Z,46.81
2018-04-23T14:41:01.122Z,48.21
2018-04-23T14:43:28.637Z,48.66
2018-04-23T14:45:56.135Z,49.10
2018-04-23T14:48:23.668Z,49.67
2018-04-23T14:50:51.177Z,49.98
2018-04-23T14:53:18.730Z,49.42
2018-04-23T14:55:46.238Z,48.65
2018-04-23T14:58:13.759Z,48.91
2018-04-23T15:00:41.259Z,48.78
2018-04-23T15:03:08.770Z,48.16
2018-04-23T15:05:36.270Z,48.15
2018-04-23T15:08:03.795Z,47.53
2018-04-23T15:10:31.297Z,47.51
2018-04-23T15:12:58.822Z,47.70
2018-04-23T15:15:26.323Z,47.59
2018-04-23T15:17:53.908Z,47.69
2018-04-23T15:20:21.402Z,47.08
2018-04-23T15:22:48.907Z,47.59
2018-04-23T15:25:16.428Z,46.96
2018-04-23T15:27:43.926Z,46.14
2018-04-23T15:30:11.450Z,45.81
2018-04-23T15:32:39.007Z,46.03
2018-04-23T15:35:06.557Z,46.78
2018-04-23T15:37:34.069Z,47.38
2018-04-23T15:40:01.602Z,48.21
2018-04-23T15:42:29.130Z,48.74
2018-04-23T15:44:56.648Z,50.42
2018-04-23T15:47:24.150Z,51.43
2018-04-23T15:49:51.690Z,52.50
2018-04-23T15:52:19.189Z,55.68
2018-04-23T15:54:46.714Z,56.92
2018-04-23T15:57:14.224Z,58.70
2018-04-23T15:59:41.750Z,60.38
2018-04-23T16:02:09.246Z,60.59
2018-04-23T16:04:36.769Z,61.98
2018-04-23T16:07:04.305Z,60.89
2018-04-23T16:09:31.825Z,62.55
2018-04-23T16:11:59.318Z,62.06
2018-04-23T16:14:26.837Z,60.97
2018-04-23T16:16:54.333Z,61.94
2018-04-23T16:19:21.839Z,61.87
2018-04-23T16:21:49.367Z,63.50
2018-04-23T16:24:16.869Z,62.51
2018-04-23T16:26:44.385Z,61.97
2018-04-23T16:29:11.886Z,63.19
2018-04-23T16:31:39.407Z,63.62
2018-04-23T16:34:06.916Z,63.44
2018-04-23T16:36:34.456Z,63.01
2018-04-23T16:39:01.971Z,64.07
2018-04-23T16:41:29.492Z,63.87
2018-04-23T16:43:56.996Z,64.87
2018-04-23T16:46:24.519Z,64.34
2018-04-23T16:48:52.051Z,63.41
2018-04-23T16:51:19.575Z,63.30
2018-04-23T16:53:47.204Z,62.34
2018-04-23T16:56:14.721Z,62.08
2018-04-23T16:58:42.224Z,62.53
2018-04-23T17:01:09.952Z,61.31
2018-04-23T17:03:37.484Z,61.30
2018-04-23T17:06:04.997Z,61.15
2018-04-23T17:08:32.578Z,60.89
2018-04-23T17:11:00.105Z,60.18
2018-04-23T17:13:27.725Z,60.86
2018-04-23T17:15:55.415Z,60.77
2018-04-23T17:18:22.958Z,61.60
2018-04-23T17:20:50.475Z,62.05
2018-04-23T17:23:18.003Z,62.05
2018-04-23T17:25:45.506Z,62.62
2018-04-23T17:28:13.041Z,62.75
2018-04-23T17:30:40.545Z,62.11
2018-04-23T17:33:08.073Z,61.50
2018-04-23T17:35:35.583Z,61.89
2018-04-23T17:38:03.100Z,61.14
2018-04-23T17:40:30.605Z,61.66
2018-04-23T17:42:58.126Z,60.66
2018-04-23T17:45:25.633Z,61.26
2018-04-23T17:47:53.153Z,61.84
2018-04-23T17:50:20.646Z,62.37
2018-04-23T17:52:48.248Z,63.83
2018-04-23T17:55:15.760Z,65.02
2018-04-23T17:57:43.301Z,66.49
2018-04-23T18:00:10.797Z,67.96
2018-04-23T18:02:38.336Z,69.30
2018-04-23T18:05:05.834Z,70.91
2018-04-23T18:07:33.362Z,71.57
2018-04-23T18:10:00.871Z,72.23
2018-04-23T18:12:28.397Z,72.55
2018-04-23T18:14:55.930Z,73.15
2018-04-23T18:17:23.450Z,73.44
2018-04-23T18:19:50.968Z,73.52
2018-04-23T18:22:18.461Z,73.76
2018-04-23T18:24:45.986Z,74.06
2018-04-23T18:27:13.498Z,74.50
2018-04-23T18:29:41.034Z,74.81
2018-04-23T18:32:08.540Z,75.08
2018-04-23T18:34:36.176Z,75.08
2018-04-23T18:37:03.889Z,75.34
2018-04-23T18:39:31.465Z,75.63
2018-04-23T18:41:59.166Z,75.68
2018-04-23T18:44:26.712Z,76.11
2018-04-23T18:46:54.213Z,76.31
2018-04-23T18:49:21.737Z,76.38
2018-04-23T18:51:49.243Z,76.49
2018-04-23T18:54:16.782Z,76.34
2018-04-23T18:56:44.282Z,76.27
2018-04-23T18:59:11.816Z,76.13
2018-04-23T19:01:39.315Z,76.06
2018-04-23T19:04:06.960Z,76.12
2018-04-23T19:06:34.466Z,76.32
2018-04-23T19:09:02.056Z,76.24
2018-04-23T19:11:29.579Z,76.34
2018-04-23T19:13:57.086Z,76.48
2018-04-23T19:16:24.601Z,76.64
2018-04-23T19:18:52.101Z,76.52
2018-04-23T19:21:19.839Z,76.56
2018-04-23T19:23:47.449Z,76.73
2018-04-23T19:26:15.000Z,76.89
2018-04-23T19:28:42.531Z,76.93
2018-04-23T19:31:10.261Z,76.73
2018-04-23T19:33:37.914Z,76.69
2018-04-23T19:36:05.453Z,76.57
2018-04-23T19:38:32.979Z,76.62
2018-04-23T19:41:00.727Z,76.78
2018-04-23T19:43:28.425Z,76.83
2018-04-23T19:45:55.977Z,76.94
2018-04-23T19:48:23.481Z,77.03
2018-04-23T19:50:51.303Z,77.11
2018-04-23T19:53:19.011Z,76.98
2018-04-23T19:55:46.549Z,76.91
2018-04-23T19:58:14.050Z,76.98
2018-04-23T20:00:41.758Z,76.88
2018-04-23T20:03:09.469Z,76.87
2018-04-23T20:05:36.984Z,76.92
2018-04-23T20:08:04.705Z,77.04
2018-04-23T20:10:32.414Z,77.05
2018-04-23T20:12:59.958Z,77.00
2018-04-23T20:15:28.399Z,77.06
2018-04-23T20:17:55.939Z,76.96
2018-04-23T20:20:23.442Z,77.04
2018-04-23T20:22:51.932Z,77.16
2018-04-23T20:25:19.425Z,77.02
2018-04-23T20:27:46.936Z,76.95
2018-04-23T20:30:14.734Z,76.99
2018-04-23T20:32:42.449Z,77.06
2018-04-23T20:35:09.985Z,77.07
2018-04-23T20:37:38.371Z,76.87
2018-04-23T20:40:05.862Z,76.79
2018-04-23T20:42:33.405Z,76.70
2018-04-23T20:45:01.159Z,76.76
2018-04-23T20:47:29.691Z,76.46
2018-04-23T20:49:57.190Z,76.52
2018-04-23T20:52:24.711Z,76.47
2018-04-23T20:54:52.279Z,76.25
2018-04-23T20:57:19.754Z,76.23
2018-04-23T20:59:47.253Z,76.29
2018-04-23T21:02:14.761Z,76.36
2018-04-23T21:04:42.283Z,76.19
2018-04-23T21:07:09.794Z,76.27
2018-04-23T21:09:37.331Z,76.21
2018-04-23T21:12:04.821Z,76.40
2018-04-23T21:14:32.342Z,76.41
2018-04-23T21:16:59.872Z,76.41
2018-04-23T21:19:27.450Z,76.55
2018-04-23T21:21:54.961Z,76.73
2018-04-23T21:24:22.478Z,76.86
2018-04-23T21:26:49.973Z,77.14
2018-04-23T21:29:17.506Z,77.40
2018-04-23T21:31:45.001Z,77.45
2018-04-23T21:34:12.521Z,77.74
2018-04-23T21:36:40.023Z,78.06
2018-04-23T21:39:07.541Z,78.10
2018-04-23T21:41:35.038Z,78.25
2018-04-23T21:44:02.552Z,78.25
2018-04-23T21:46:30.053Z,78.23
2018-04-23T21:48:57.571Z,78.04
2018-04-23T21:51:25.065Z,78.09
2018-04-23T21:53:52.557Z,77.82
2018-04-23T21:56:20.083Z,77.91
2018-04-23T21:58:47.582Z,77.95
2018-04-23T22:01:15.111Z,77.59
2018-04-23T22:03:42.616Z,77.54
2018-04-23T22:06:10.140Z,77.78
2018-04-23T22:08:37.639Z,77.55
2018-04-23T22:11:05.174Z,77.72
2018-04-23T22:13:32.683Z,77.84
2018-04-23T22:16:00.204Z,77.57
2018-04-23T22:18:27.698Z,77.82
2018-04-23T22:20:55.224Z,77.37
2018-04-23T22:23:22.717Z,77.43
2018-04-23T22:25:50.238Z,77.65
2018-04-23T22:28:17.746Z,77.52
2018-04-23T22:30:45.266Z,77.18
2018-04-23T22:33:12.762Z,77.21
2018-04-23T22:35:40.306Z,77.12
2018-04-23T22:38:07.813Z,77.43
2018-04-23T22:40:35.336Z,77.07
2018-04-23T22:43:02.908Z,76.67
2018-04-23T22:45:30.429Z,76.89
2018-04-23T22:47:57.929Z,77.12
2018-04-23T22:50:25.429Z,76.62
2018-04-23T22:52:52.954Z,76.38
2018-04-23T22:55:20.444Z,76.10
2018-04-23T22:57:48.002Z,75.72
2018-04-23T23:00:15.507Z,75.63
2018-04-23T23:02:43.033Z,75.37
2018-04-23T23:05:10.546Z,75.28
2018-04-23T23:07:38.058Z,75.37
2018-04-23T23:10:05.553Z,75.25
2018-04-23T23:12:33.082Z,75.17
2018-04-23T23:15:01.284Z,75.05
2018-04-23T23:17:28.796Z,74.96
2018-04-23T23:19:56.297Z,74.87
2018-04-23T23:22:23.821Z,74.96
2018-04-23T23:24:51.339Z,74.81
2018-04-23T23:27:18.853Z,74.89
2018-04-23T23:29:46.351Z,74.91
2018-04-23T23:32:13.869Z,74.82
2018-04-23T23:34:41.362Z,74.44
2018-04-23T23:37:08.876Z,74.52
2018-04-23T23:39:36.365Z,74.65
2018-04-23T23:42:03.936Z,74.48
2018-04-23T23:44:31.436Z,74.29
2018-04-23T23:46:58.938Z,74.19
2018-04-23T23:49:26.469Z,74.23
2018-04-23T23:51:53.961Z,74.33
2018-04-23T23:54:21.481Z,73.93
2018-04-23T23:56:48.973Z,74.03
2018-04-23T23:59:16.501Z,73.90
